createdAt,value
2023-04-15T00:00:10.424Z,13.55
2023-04-15T00:03:02.565Z,13.55
2023-04-15T00:05:31.686Z,13.61
2023-04-15T00:08:08.164Z,13.70
2023-04-15T00:10:36.211Z,13.66
2023-04-15T00:13:04.517Z,13.65
2023-04-15T00:15:32.920Z,13.61
2023-04-15T00:18:01.363Z,13.55
2023-04-15T00:20:29.319Z,13.56
2023-04-15T00:22:58.140Z,13.61
2023-04-15T00:25:26.446Z,13.64
2023-04-15T00:27:54.469Z,13.64
2023-04-15T00:30:24.054Z,13.56
2023-04-15T00:32:52.822Z,13.52
2023-04-15T00:35:22.625Z,13.57
2023-04-15T00:37:53.113Z,13.67
2023-04-15T00:40:21.918Z,13.67
2023-04-15T00:42:51.396Z,13.68
2023-04-15T00:45:19.410Z,13.60
2023-04-15T00:47:47.519Z,13.62
2023-04-15T00:50:16.223Z,13.68
2023-04-15T00:52:45.084Z,13.50
2023-04-15T00:55:13.368Z,13.48
2023-04-15T00:57:41.667Z,13.53
2023-04-15T01:00:11.821Z,13.51
2023-04-15T01:02:40.518Z,13.57
2023-04-15T01:05:09.505Z,13.54
2023-04-15T01:07:37.576Z,13.56
2023-04-15T01:10:06.195Z,13.59
2023-04-15T01:12:34.414Z,13.60
2023-04-15T01:15:02.441Z,13.60
2023-04-15T01:17:30.640Z,13.69
2023-04-15T01:19:59.009Z,13.68
2023-04-15T01:22:27.715Z,13.64
2023-04-15T01:25:08.933Z,13.63
2023-04-15T01:27:41.196Z,13.63
2023-04-15T01:30:10.725Z,13.72
2023-04-15T01:32:38.876Z,13.70
2023-04-15T01:35:07.907Z,13.74
2023-04-15T01:37:36.029Z,13.63
2023-04-15T01:40:04.565Z,13.58
2023-04-15T01:42:32.900Z,13.58
2023-04-15T01:45:01.001Z,13.62
2023-04-15T01:47:29.076Z,13.67
2023-04-15T01:49:57.203Z,13.56
2023-04-15T01:52:25.353Z,13.58
2023-04-15T01:54:53.599Z,13.61
2023-04-15T01:57:22.114Z,13.65
2023-04-15T01:59:50.131Z,13.68
2023-04-15T02:02:18.186Z,13.68
2023-04-15T02:04:46.511Z,13.68
2023-04-15T02:07:14.623Z,13.59
2023-04-15T02:09:43.630Z,13.60
2023-04-15T02:12:11.836Z,13.68
2023-04-15T02:14:40.211Z,13.59
2023-04-15T02:17:08.601Z,13.59
2023-04-15T02:19:40.529Z,13.57
2023-04-15T02:22:09.413Z,13.63
2023-04-15T02:24:37.500Z,13.75
2023-04-15T02:27:05.583Z,13.77
2023-04-15T02:29:33.664Z,13.81
2023-04-15T02:32:02.440Z,13.85
2023-04-15T02:34:31.735Z,13.90
2023-04-15T02:36:59.756Z,13.87
2023-04-15T02:39:28.285Z,13.80
2023-04-15T02:41:59.136Z,13.77
2023-04-15T02:44:28.175Z,13.76
2023-04-15T02:46:59.356Z,13.69
2023-04-15T02:49:30.006Z,13.68
2023-04-15T02:52:00.003Z,13.75
2023-04-15T02:54:31.079Z,13.82
2023-04-15T02:56:59.194Z,13.80
2023-04-15T02:59:27.255Z,13.85
2023-04-15T03:02:00.994Z,13.76
2023-04-15T03:04:30.921Z,13.78
2023-04-15T03:06:59.168Z,13.74
2023-04-15T03:09:30.075Z,13.65
2023-04-15T03:11:59.627Z,13.64
2023-04-15T03:14:29.563Z,13.74
2023-04-15T03:17:00.660Z,13.70
2023-04-15T03:19:34.681Z,13.65
2023-04-15T03:22:02.791Z,13.66
2023-04-15T03:24:31.027Z,13.69
2023-04-15T03:27:02.059Z,13.74
2023-04-15T03:29:30.863Z,13.77
2023-04-15T03:31:58.955Z,13.80
2023-04-15T03:34:32.628Z,13.86
2023-04-15T03:37:00.695Z,13.90
2023-04-15T03:39:28.632Z,13.88
2023-04-15T03:41:56.779Z,13.85
2023-04-15T03:44:24.939Z,13.88
2023-04-15T03:46:52.928Z,13.83
2023-04-15T03:49:23.071Z,13.90
2023-04-15T03:51:51.236Z,13.90
2023-04-15T03:54:19.178Z,13.95
2023-04-15T03:56:47.378Z,13.95
2023-04-15T03:59:21.588Z,14.02
2023-04-15T04:01:49.903Z,14.02
2023-04-15T04:04:17.973Z,13.98
2023-04-15T04:06:46.294Z,13.99
2023-04-15T04:09:14.333Z,13.97
2023-04-15T04:11:45.939Z,13.97
2023-04-15T04:14:14.224Z,13.96
2023-04-15T04:16:42.399Z,13.87
2023-04-15T04:19:10.796Z,13.90
2023-04-15T04:21:41.529Z,14.02
2023-04-15T04:24:12.459Z,14.11
2023-04-15T04:26:42.900Z,14.15
2023-04-15T04:29:11.266Z,14.20
2023-04-15T04:31:40.822Z,14.28
2023-04-15T04:34:14.436Z,14.40
2023-04-15T04:36:42.614Z,14.49
2023-04-15T04:39:13.083Z,14.54
2023-04-15T04:41:41.356Z,14.60
2023-04-15T04:44:09.376Z,14.68
2023-04-15T04:46:37.493Z,14.61
2023-04-15T04:49:07.068Z,14.45
2023-04-15T04:51:41.378Z,14.26
2023-04-15T04:54:10.027Z,14.32
2023-04-15T04:56:39.892Z,14.38
2023-04-15T04:59:11.581Z,14.46
2023-04-15T05:01:42.081Z,14.52
2023-04-15T05:04:11.577Z,14.59
2023-04-15T05:06:44.506Z,14.64
2023-04-15T05:09:16.689Z,14.74
2023-04-15T05:11:45.045Z,14.86
2023-04-15T05:14:13.250Z,15.02
2023-04-15T05:16:41.630Z,15.25
2023-04-15T05:19:09.724Z,15.27
2023-04-15T05:21:39.439Z,15.31
2023-04-15T05:24:07.654Z,15.36
2023-04-15T05:26:36.006Z,15.44
2023-04-15T05:29:04.109Z,15.50
2023-04-15T05:31:32.705Z,15.53
2023-04-15T05:34:00.718Z,15.53
2023-04-15T05:36:28.894Z,15.61
2023-04-15T05:38:56.896Z,15.72
2023-04-15T05:41:24.999Z,15.83
2023-04-15T05:43:55.384Z,15.86
2023-04-15T05:46:23.604Z,15.87
2023-04-15T05:48:51.756Z,15.84
2023-04-15T05:51:24.108Z,15.84
2023-04-15T05:53:52.233Z,15.82
2023-04-15T05:56:20.776Z,15.83
2023-04-15T05:58:48.846Z,15.91
2023-04-15T06:01:17.229Z,15.95
2023-04-15T06:03:45.357Z,15.93
2023-04-15T06:06:13.721Z,15.88
2023-04-15T06:08:42.071Z,15.78
2023-04-15T06:11:10.133Z,15.79
2023-04-15T06:13:38.186Z,15.81
2023-04-15T06:16:06.942Z,15.83
2023-04-15T06:18:34.972Z,15.88
2023-04-15T06:21:02.986Z,15.93
2023-04-15T06:23:31.166Z,15.92
2023-04-15T06:25:59.125Z,15.84
2023-04-15T06:28:27.047Z,15.80
2023-04-15T06:30:56.303Z,15.84
2023-04-15T06:33:24.205Z,15.90
2023-04-15T06:35:52.399Z,15.95
2023-04-15T06:38:20.546Z,16.03
2023-04-15T06:40:48.476Z,16.03
2023-04-15T06:43:16.490Z,16.06
2023-04-15T06:45:44.664Z,16.07
2023-04-15T06:48:12.819Z,16.06
2023-04-15T06:50:41.172Z,16.05
2023-04-15T06:53:09.215Z,16.04
2023-04-15T06:55:37.256Z,16.13
2023-04-15T06:58:05.323Z,16.17
2023-04-15T07:00:43.709Z,16.24
2023-04-15T07:03:17.763Z,16.23
2023-04-15T07:05:45.976Z,16.22
2023-04-15T07:08:14.236Z,16.22
2023-04-15T07:10:42.339Z,16.19
2023-04-15T07:13:10.342Z,16.20
2023-04-15T07:15:38.453Z,16.22
2023-04-15T07:18:06.787Z,16.29
2023-04-15T07:20:34.752Z,16.31
2023-04-15T07:23:02.788Z,16.28
2023-04-15T07:25:30.972Z,16.23
2023-04-15T07:27:59.135Z,16.28
2023-04-15T07:30:27.276Z,16.31
2023-04-15T07:32:55.299Z,16.26
2023-04-15T07:35:23.589Z,16.28
2023-04-15T07:37:52.260Z,16.34
2023-04-15T07:40:20.226Z,16.37
2023-04-15T07:42:49.511Z,16.33
2023-04-15T07:45:17.770Z,16.26
2023-04-15T07:47:46.140Z,16.24
2023-04-15T07:50:14.573Z,16.20
2023-04-15T07:52:42.975Z,16.18
2023-04-15T07:55:11.085Z,16.20
2023-04-15T07:57:39.024Z,16.22
2023-04-15T08:00:08.204Z,16.31
2023-04-15T08:02:43.524Z,16.52
2023-04-15T08:05:11.758Z,16.57
2023-04-15T08:07:40.048Z,16.61
2023-04-15T08:10:08.760Z,16.09
2023-04-15T08:12:37.262Z,15.27
2023-04-15T08:15:06.753Z,14.62
2023-04-15T08:17:34.990Z,14.29
2023-04-15T08:20:06.049Z,14.87
2023-04-15T08:22:34.532Z,15.63
2023-04-15T08:25:03.584Z,16.14
2023-04-15T08:27:31.811Z,16.30
2023-04-15T08:30:02.136Z,16.52
2023-04-15T08:32:31.569Z,16.64
2023-04-15T08:34:59.542Z,16.67
2023-04-15T08:37:27.512Z,16.17
2023-04-15T08:39:59.074Z,15.37
2023-04-15T08:42:37.544Z,14.75
2023-04-15T08:45:06.482Z,14.25
2023-04-15T08:47:34.561Z,14.29
2023-04-15T08:50:04.436Z,15.05
2023-04-15T08:52:32.503Z,15.70
2023-04-15T08:55:00.490Z,16.18
2023-04-15T08:57:28.805Z,16.58
2023-04-15T08:59:57.406Z,16.32
2023-04-15T09:02:28.722Z,15.67
2023-04-15T09:04:57.812Z,15.61
2023-04-15T09:07:26.122Z,16.18
2023-04-15T09:09:54.282Z,16.67
2023-04-15T09:12:22.310Z,16.43
2023-04-15T09:14:50.301Z,16.01
2023-04-15T09:17:20.666Z,15.75
2023-04-15T09:19:48.899Z,15.57
2023-04-15T09:22:52.733Z,16.26
2023-04-15T09:25:24.396Z,16.44
2023-04-15T09:27:57.942Z,15.99
2023-04-15T09:30:26.594Z,15.57
2023-04-15T09:32:57.236Z,15.28
2023-04-15T09:35:26.323Z,15.35
2023-04-15T09:38:03.038Z,16.10
2023-04-15T09:40:35.036Z,16.82
2023-04-15T09:43:07.347Z,17.21
2023-04-15T09:45:36.449Z,16.84
2023-04-15T09:48:21.776Z,16.22
2023-04-15T09:50:50.065Z,15.67
2023-04-15T09:53:20.727Z,15.32
2023-04-15T09:55:55.595Z,15.03
2023-04-15T09:58:25.056Z,14.76
2023-04-15T10:00:54.404Z,15.16
2023-04-15T10:03:31.805Z,15.93
2023-04-15T10:06:01.045Z,16.40
2023-04-15T10:08:33.812Z,16.09
2023-04-15T10:11:05.355Z,15.63
2023-04-15T10:13:35.328Z,15.40
2023-04-15T10:16:15.981Z,15.30
2023-04-15T10:18:45.534Z,15.54
2023-04-15T10:21:16.612Z,16.50
2023-04-15T10:23:47.833Z,17.11
2023-04-15T10:26:17.299Z,16.98
2023-04-15T10:28:47.256Z,16.93
2023-04-15T10:31:15.482Z,17.06
2023-04-15T10:33:46.422Z,17.13
2023-04-15T10:36:18.964Z,17.06
2023-04-15T10:38:47.300Z,17.01
2023-04-15T10:41:22.061Z,16.66
2023-04-15T10:44:03.775Z,16.42
2023-04-15T10:46:38.189Z,16.43
2023-04-15T10:49:14.969Z,16.44
2023-04-15T10:51:47.195Z,16.52
2023-04-15T10:54:32.442Z,16.77
2023-04-15T10:57:01.519Z,17.09
2023-04-15T10:59:30.547Z,17.15
2023-04-15T11:02:03.537Z,17.03
2023-04-15T11:04:59.130Z,16.80
2023-04-15T11:07:49.000Z,16.56
2023-04-15T11:10:25.935Z,16.46
2023-04-15T11:12:57.690Z,16.41
2023-04-15T11:15:30.677Z,16.29
2023-04-15T11:18:20.972Z,16.24
2023-04-15T11:20:57.619Z,16.40
2023-04-15T11:23:44.172Z,16.67
2023-04-15T11:26:12.558Z,16.49
2023-04-15T11:28:43.345Z,16.53
2023-04-15T11:31:13.037Z,16.37
2023-04-15T11:33:54.637Z,16.14
2023-04-15T11:36:30.186Z,15.80
2023-04-15T11:38:59.586Z,15.63
2023-04-15T11:41:27.582Z,15.59
2023-04-15T11:43:55.853Z,15.69
2023-04-15T11:46:30.925Z,15.50
2023-04-15T11:49:00.160Z,15.16
2023-04-15T11:51:32.011Z,14.99
2023-04-15T11:54:00.072Z,14.89
2023-04-15T11:56:27.973Z,14.77
2023-04-15T11:58:58.819Z,14.69
2023-04-15T12:01:36.466Z,14.77
2023-04-15T12:04:15.303Z,14.90
2023-04-15T12:06:43.387Z,15.26
2023-04-15T12:09:17.882Z,15.72
2023-04-15T12:11:53.889Z,16.04
2023-04-15T12:14:24.220Z,16.15
2023-04-15T12:17:03.103Z,16.19
2023-04-15T12:19:38.246Z,16.23
2023-04-15T12:22:09.571Z,16.18
2023-04-15T12:24:38.090Z,16.01
2023-04-15T12:27:11.309Z,15.91
2023-04-15T12:29:40.841Z,15.99
2023-04-15T12:32:12.645Z,16.10
2023-04-15T12:34:50.976Z,16.01
2023-04-15T12:37:19.853Z,15.82
2023-04-15T12:39:49.360Z,15.79
2023-04-15T12:42:18.134Z,15.61
2023-04-15T12:44:46.319Z,15.39
2023-04-15T12:47:17.205Z,15.13
2023-04-15T12:49:45.880Z,15.04
2023-04-15T12:52:13.945Z,15.22
2023-04-15T12:54:41.914Z,15.50
2023-04-15T12:57:09.787Z,15.79
2023-04-15T12:59:37.812Z,15.93
2023-04-15T13:02:05.849Z,16.22
2023-04-15T13:04:34.116Z,16.26
2023-04-15T13:07:02.415Z,16.22
2023-04-15T13:09:31.119Z,16.18
2023-04-15T13:11:59.350Z,16.25
2023-04-15T13:14:27.301Z,16.19
2023-04-15T13:16:57.142Z,16.16
2023-04-15T13:19:25.262Z,15.79
2023-04-15T13:21:53.412Z,15.37
2023-04-15T13:24:21.463Z,15.25
2023-04-15T13:26:50.482Z,15.22
2023-04-15T13:29:18.894Z,15.17
2023-04-15T13:31:47.031Z,15.07
2023-04-15T13:34:14.976Z,15.07
2023-04-15T13:36:42.974Z,14.93
2023-04-15T13:39:11.140Z,14.87
2023-04-15T13:41:40.526Z,14.83
2023-04-15T13:44:08.731Z,14.75
2023-04-15T13:46:37.905Z,14.70
2023-04-15T13:49:06.208Z,14.54
2023-04-15T13:51:36.408Z,14.39
2023-04-15T13:54:07.279Z,14.37
2023-04-15T13:56:35.552Z,14.36
2023-04-15T13:59:03.738Z,14.28
2023-04-15T14:01:31.749Z,14.27
2023-04-15T14:03:59.807Z,14.25
2023-04-15T14:06:28.722Z,14.27
2023-04-15T14:08:56.717Z,14.31
2023-04-15T14:11:24.837Z,14.41
2023-04-15T14:13:52.881Z,14.53
2023-04-15T14:16:20.960Z,14.65
2023-04-15T14:18:49.173Z,14.76
2023-04-15T14:21:17.244Z,14.86
2023-04-15T14:23:45.515Z,14.97
2023-04-15T14:26:16.485Z,15.00
2023-04-15T14:28:48.568Z,14.99
2023-04-15T14:31:16.788Z,14.92
2023-04-15T14:33:44.734Z,14.80
2023-04-15T14:36:12.770Z,14.59
2023-04-15T14:38:41.208Z,14.35
2023-04-15T14:41:09.974Z,14.15
2023-04-15T14:43:39.513Z,13.97
2023-04-15T14:46:08.798Z,13.77
2023-04-15T14:48:37.034Z,13.74
2023-04-15T14:51:05.366Z,14.43
2023-04-15T14:53:33.572Z,15.16
2023-04-15T14:56:01.720Z,15.67
2023-04-15T14:58:29.864Z,16.09
2023-04-15T15:00:58.051Z,16.42
2023-04-15T15:03:26.312Z,16.61
2023-04-15T15:05:54.701Z,16.38
2023-04-15T15:08:25.041Z,15.92
2023-04-15T15:10:53.009Z,15.60
2023-04-15T15:13:21.090Z,15.36
2023-04-15T15:15:51.592Z,15.19
2023-04-15T15:18:19.835Z,15.05
2023-04-15T15:20:48.010Z,15.45
2023-04-15T15:23:16.265Z,16.28
2023-04-15T15:25:44.647Z,16.99
2023-04-15T15:28:12.647Z,17.47
2023-04-15T15:30:40.891Z,17.78
2023-04-15T15:33:08.976Z,17.66
2023-04-15T15:35:37.080Z,17.04
2023-04-15T15:38:05.562Z,16.41
2023-04-15T15:40:33.651Z,15.95
2023-04-15T15:43:01.671Z,15.61
2023-04-15T15:45:30.402Z,15.31
2023-04-15T15:47:59.395Z,15.05
2023-04-15T15:50:27.438Z,14.81
2023-04-15T15:52:55.768Z,14.60
2023-04-15T15:55:25.337Z,14.45
2023-04-15T15:57:54.527Z,14.96
2023-04-15T16:00:23.243Z,15.73
2023-04-15T16:03:05.278Z,16.28
2023-04-15T16:05:36.147Z,16.65
2023-04-15T16:08:04.508Z,16.86
2023-04-15T16:10:32.490Z,17.09
2023-04-15T16:13:00.500Z,17.26
2023-04-15T16:15:28.585Z,17.44
2023-04-15T16:17:56.677Z,17.60
2023-04-15T16:20:24.910Z,17.23
2023-04-15T16:22:52.857Z,16.45
2023-04-15T16:25:20.942Z,15.74
2023-04-15T16:28:00.836Z,15.22
2023-04-15T16:30:31.487Z,14.89
2023-04-15T16:32:59.525Z,15.32
2023-04-15T16:35:27.568Z,15.95
2023-04-15T16:37:55.790Z,16.21
2023-04-15T16:40:24.124Z,15.72
2023-04-15T16:42:52.299Z,14.91
2023-04-15T16:45:20.365Z,14.25
2023-04-15T16:47:48.408Z,13.92
2023-04-15T16:50:16.919Z,14.38
2023-04-15T16:52:44.949Z,14.95
2023-04-15T16:55:13.026Z,15.37
2023-04-15T16:58:01.077Z,15.71
2023-04-15T17:00:29.106Z,16.01
2023-04-15T17:02:57.397Z,16.22
2023-04-15T17:05:27.733Z,16.36
2023-04-15T17:07:55.929Z,16.47
2023-04-15T17:10:24.069Z,16.55
2023-04-15T17:12:52.892Z,16.57
2023-04-15T17:15:21.140Z,16.49
2023-04-15T17:17:49.195Z,15.93
2023-04-15T17:20:20.018Z,15.04
2023-04-15T17:22:51.089Z,14.31
2023-04-15T17:25:21.373Z,13.78
2023-04-15T17:27:49.456Z,13.39
2023-04-15T17:30:19.573Z,13.07
2023-04-15T17:32:47.638Z,12.98
2023-04-15T17:35:16.343Z,13.57
2023-04-15T17:37:46.447Z,14.15
2023-04-15T17:40:14.926Z,14.57
2023-04-15T17:42:43.022Z,14.85
2023-04-15T17:45:14.305Z,15.05
2023-04-15T17:47:43.058Z,15.21
2023-04-15T17:50:11.127Z,15.32
2023-04-15T17:52:39.104Z,15.41
2023-04-15T17:55:08.070Z,15.49
2023-04-15T17:57:36.402Z,15.56
2023-04-15T18:00:06.916Z,15.63
2023-04-15T18:02:41.222Z,15.68
2023-04-15T18:05:10.518Z,15.46
2023-04-15T18:07:38.665Z,14.61
2023-04-15T18:10:11.149Z,13.83
2023-04-15T18:12:39.319Z,13.20
2023-04-15T18:15:09.531Z,12.72
2023-04-15T18:17:39.265Z,12.27
2023-04-15T18:20:08.652Z,11.87
2023-04-15T18:22:41.777Z,11.80
2023-04-15T18:25:14.206Z,12.50
2023-04-15T18:27:42.313Z,13.14
2023-04-15T18:30:11.525Z,13.59
2023-04-15T18:32:39.636Z,13.85
2023-04-15T18:35:08.366Z,14.06
2023-04-15T18:37:36.414Z,14.31
2023-04-15T18:40:17.709Z,14.52
2023-04-15T18:43:05.990Z,14.63
2023-04-15T18:45:35.152Z,14.81
2023-04-15T18:48:03.312Z,14.89
2023-04-15T18:50:31.272Z,14.88
2023-04-15T18:52:59.344Z,14.90
2023-04-15T18:55:27.489Z,14.95
2023-04-15T18:57:56.666Z,14.84
2023-04-15T19:00:25.035Z,14.06
2023-04-15T19:02:55.971Z,13.18
2023-04-15T19:05:31.458Z,12.45
2023-04-15T19:07:59.838Z,11.90
2023-04-15T19:10:28.337Z,11.44
2023-04-15T19:12:56.396Z,11.05
2023-04-15T19:15:24.402Z,10.72
2023-04-15T19:17:52.393Z,10.42
2023-04-15T19:20:20.523Z,10.50
2023-04-15T19:22:48.636Z,11.24
2023-04-15T19:25:16.751Z,11.85
2023-04-15T19:27:45.004Z,12.28
2023-04-15T19:30:13.187Z,12.60
2023-04-15T19:32:41.622Z,12.87
2023-04-15T19:35:11.547Z,13.09
2023-04-15T19:37:39.859Z,13.20
2023-04-15T19:40:09.626Z,13.34
2023-04-15T19:42:37.620Z,13.46
2023-04-15T19:45:06.377Z,13.55
2023-04-15T19:47:34.873Z,13.61
2023-04-15T19:50:02.957Z,13.60
2023-04-15T19:52:31.428Z,13.61
2023-04-15T19:54:59.373Z,13.70
2023-04-15T19:57:27.407Z,13.87
2023-04-15T19:59:56.067Z,13.92
2023-04-15T20:02:24.262Z,13.94
2023-04-15T20:04:52.380Z,13.81
2023-04-15T20:07:20.426Z,13.73
2023-04-15T20:09:48.343Z,13.65
2023-04-15T20:12:51.185Z,13.62
2023-04-15T20:15:09.300Z,13.61
2023-04-15T20:17:37.440Z,13.66
2023-04-15T20:20:06.352Z,13.72
2023-04-15T20:22:34.660Z,13.77
2023-04-15T20:25:02.872Z,13.78
2023-04-15T20:27:30.793Z,13.80
2023-04-15T20:29:58.844Z,13.85
2023-04-15T20:32:28.300Z,13.88
2023-04-15T20:34:56.649Z,13.88
2023-04-15T20:37:24.651Z,13.89
2023-04-15T20:39:52.980Z,13.89
2023-04-15T20:42:20.978Z,13.93
2023-04-15T20:44:48.922Z,13.97
2023-04-15T20:47:17.121Z,14.00
2023-04-15T20:49:47.533Z,13.98
2023-04-15T20:52:15.427Z,13.95
2023-04-15T20:54:44.077Z,13.92
2023-04-15T20:57:12.211Z,13.92
2023-04-15T20:59:40.364Z,13.93
2023-04-15T21:02:08.488Z,13.96
2023-04-15T21:04:38.389Z,13.97
2023-04-15T21:07:06.341Z,14.00
2023-04-15T21:09:34.372Z,14.03
2023-04-15T21:12:02.624Z,14.09
2023-04-15T21:14:30.668Z,14.14
2023-04-15T21:16:58.854Z,13.96
2023-04-15T21:19:26.861Z,13.80
2023-04-15T21:21:54.924Z,13.68
2023-04-15T21:24:22.985Z,13.64
2023-04-15T21:26:51.205Z,13.68
2023-04-15T21:29:19.241Z,13.72
2023-04-15T21:31:47.255Z,13.74
2023-04-15T21:34:15.200Z,13.82
2023-04-15T21:36:43.171Z,13.91
2023-04-15T21:39:11.215Z,13.95
2023-04-15T21:41:39.237Z,13.94
2023-04-15T21:44:07.268Z,13.97
2023-04-15T21:46:36.124Z,14.00
2023-04-15T21:49:04.865Z,14.03
2023-04-15T21:51:33.205Z,14.03
2023-04-15T21:54:01.247Z,14.02
2023-04-15T21:56:29.306Z,13.98
2023-04-15T21:58:57.633Z,14.00
2023-04-15T22:01:26.464Z,14.00
2023-04-15T22:03:54.741Z,13.98
2023-04-15T22:06:23.118Z,13.99
2023-04-15T22:08:56.952Z,14.02
2023-04-15T22:11:30.497Z,14.07
2023-04-15T22:13:58.789Z,14.10
2023-04-15T22:16:27.089Z,14.12
2023-04-15T22:18:55.773Z,14.15
2023-04-15T22:21:59.462Z,14.12
2023-04-15T22:24:33.039Z,14.14
2023-04-15T22:27:08.492Z,14.16
2023-04-15T22:29:36.534Z,14.03
2023-04-15T22:32:04.605Z,13.51
2023-04-15T22:34:32.723Z,12.57
2023-04-15T22:37:02.861Z,11.76
2023-04-15T22:39:33.196Z,11.13
2023-04-15T22:42:03.255Z,10.66
2023-04-15T22:44:31.257Z,10.78
2023-04-15T22:46:59.260Z,11.48
2023-04-15T22:49:27.459Z,11.89
2023-04-15T22:51:55.508Z,12.13
2023-04-15T22:54:24.630Z,12.28
2023-04-15T22:56:52.537Z,12.35
2023-04-15T22:59:20.571Z,12.35
2023-04-15T23:01:48.874Z,12.36
2023-04-15T23:04:23.190Z,12.39
2023-04-15T23:06:54.240Z,12.44
2023-04-15T23:09:22.690Z,12.49
2023-04-15T23:11:50.724Z,12.50
2023-04-15T23:14:18.803Z,12.51
2023-04-15T23:16:46.800Z,12.54
2023-04-15T23:19:14.767Z,12.60
2023-04-15T23:21:42.833Z,12.65
2023-04-15T23:24:11.666Z,12.66
2023-04-15T23:26:39.676Z,12.68
2023-04-15T23:29:09.069Z,12.62
2023-04-15T23:31:37.321Z,12.57
2023-04-15T23:34:06.550Z,12.54
2023-04-15T23:36:35.254Z,12.51
2023-04-15T23:39:03.439Z,12.45
2023-04-15T23:41:31.561Z,12.43
2023-04-15T23:43:59.543Z,12.42
2023-04-15T23:46:27.560Z,12.39
2023-04-15T23:48:55.909Z,12.36
2023-04-15T23:51:23.855Z,12.38
2023-04-15T23:53:52.487Z,12.40
2023-04-15T23:56:20.955Z,12.43
2023-04-15T23:58:49.011Z,12.44
